createdAt,value
2018-09-15T00:00:01.655Z,22.73
2018-09-15T00:05:04.222Z,21.33
2018-09-15T00:10:06.825Z,20.83
2018-09-15T00:15:09.371Z,25.40
2018-09-15T00:20:12.024Z,23.40
2018-09-15T00:25:14.584Z,19.47
2018-09-15T00:30:17.184Z,22.97
2018-09-15T00:35:19.971Z,24.23
2018-09-15T00:40:22.540Z,22.27
2018-09-15T00:45:25.050Z,21.47
2018-09-15T00:50:27.579Z,23.80
2018-09-15T00:55:30.109Z,28.27
2018-09-15T01:00:32.694Z,23.77
2018-09-15T01:05:35.326Z,24.60
2018-09-15T01:10:37.853Z,22.10
2018-09-15T01:15:40.363Z,20.57
2018-09-15T01:20:42.897Z,23.40
2018-09-15T01:25:45.428Z,24.80
2018-09-15T01:30:47.998Z,24.00
2018-09-15T01:35:50.568Z,24.03
2018-09-15T01:40:53.538Z,21.90
2018-09-15T01:45:56.077Z,24.77
2018-09-15T01:50:58.702Z,22.43
2018-09-15T01:56:01.257Z,18.93
2018-09-15T02:01:03.823Z,23.17
2018-09-15T02:06:06.437Z,22.20
2018-09-15T02:11:08.962Z,21.70
2018-09-15T02:16:13.162Z,18.40
2018-09-15T02:21:15.694Z,19.27
2018-09-15T02:26:18.273Z,19.50
2018-09-15T02:31:20.844Z,18.93
2018-09-15T02:36:23.455Z,17.47
2018-09-15T02:41:25.981Z,17.57
2018-09-15T02:46:28.524Z,14.77
2018-09-15T02:51:31.099Z,15.83
2018-09-15T02:56:33.629Z,18.50
2018-09-15T03:01:36.184Z,16.73
2018-09-15T03:06:38.792Z,15.70
2018-09-15T03:11:41.616Z,20.00
2018-09-15T03:16:44.135Z,14.27
2018-09-15T03:21:46.755Z,14.13
2018-09-15T03:26:49.385Z,14.53
2018-09-15T03:31:52.099Z,17.20
2018-09-15T03:36:54.787Z,14.50
2018-09-15T03:41:57.412Z,13.27
2018-09-15T03:47:00.028Z,13.87
2018-09-15T03:52:02.611Z,13.87
2018-09-15T03:57:05.200Z,15.00
2018-09-15T04:02:07.804Z,14.00
2018-09-15T04:07:10.350Z,15.00
2018-09-15T04:12:12.871Z,13.03
2018-09-15T04:17:15.410Z,11.93
2018-09-15T04:22:17.948Z,14.73
2018-09-15T04:27:20.615Z,14.63
2018-09-15T04:32:23.159Z,14.57
2018-09-15T04:37:27.166Z,14.90
2018-09-15T04:42:29.737Z,14.00
2018-09-15T04:47:32.263Z,16.27
2018-09-15T04:52:34.806Z,15.83
2018-09-15T04:57:37.332Z,13.67
2018-09-15T05:02:40.896Z,14.93
2018-09-15T05:07:43.435Z,14.00
2018-09-15T05:12:46.004Z,14.30
2018-09-15T05:17:48.526Z,12.77
2018-09-15T05:22:51.063Z,12.33
2018-09-15T05:27:54.408Z,12.43
2018-09-15T05:32:56.928Z,11.70
2018-09-15T05:37:59.506Z,15.10
2018-09-15T05:43:02.117Z,12.73
2018-09-15T05:48:04.828Z,10.70
2018-09-15T05:53:07.360Z,12.60
2018-09-15T05:58:09.921Z,12.13
2018-09-15T06:03:12.733Z,10.80
2018-09-15T06:08:15.223Z,12.37
2018-09-15T06:13:17.882Z,11.97
2018-09-15T06:18:20.681Z,8.83
2018-09-15T06:23:23.221Z,9.53
2018-09-15T06:28:25.775Z,13.93
2018-09-15T06:33:28.327Z,10.37
2018-09-15T06:38:30.873Z,14.97
2018-09-15T06:43:33.450Z,11.17
2018-09-15T06:48:36.019Z,13.80
2018-09-15T06:53:38.940Z,12.93
2018-09-15T06:58:41.498Z,11.80
2018-09-15T07:03:44.045Z,12.17
2018-09-15T07:08:46.592Z,18.97
2018-09-15T07:13:49.185Z,12.83
2018-09-15T07:18:51.749Z,14.47
2018-09-15T07:23:54.327Z,11.70
2018-09-15T07:28:56.879Z,15.63
2018-09-15T07:33:59.451Z,11.73
2018-09-15T07:39:02.815Z,12.83
2018-09-15T07:44:05.471Z,12.17
2018-09-15T07:49:08.019Z,13.50
2018-09-15T07:54:10.576Z,14.47
2018-09-15T07:59:13.096Z,11.10
2018-09-15T08:04:15.675Z,11.57
2018-09-15T08:09:18.257Z,12.45
2018-09-15T08:14:20.895Z,14.30
2018-09-15T08:19:23.449Z,12.03
2018-09-15T08:24:26.024Z,13.73
2018-09-15T08:29:28.615Z,11.70
2018-09-15T08:34:31.178Z,9.70
2018-09-15T08:39:33.725Z,10.20
2018-09-15T08:44:36.416Z,11.23
2018-09-15T08:49:39.055Z,12.43
2018-09-15T08:54:41.642Z,14.27
2018-09-15T08:59:44.166Z,12.97
2018-09-15T09:04:46.712Z,10.60
2018-09-15T09:09:49.304Z,10.17
2018-09-15T09:14:51.842Z,10.30
2018-09-15T09:19:54.507Z,8.07
2018-09-15T09:24:57.042Z,7.53
2018-09-15T09:29:59.611Z,8.63
2018-09-15T09:35:02.247Z,7.93
2018-09-15T09:40:04.823Z,9.03
2018-09-15T09:45:07.964Z,7.80
2018-09-15T09:50:10.537Z,11.20
2018-09-15T09:55:13.068Z,8.50
2018-09-15T10:00:21.204Z,8.73
2018-09-15T10:05:23.757Z,7.90
2018-09-15T10:10:26.331Z,7.43
2018-09-15T10:15:28.902Z,6.63
2018-09-15T10:20:31.471Z,7.83
2018-09-15T10:25:36.147Z,6.63
2018-09-15T10:30:38.696Z,8.73
2018-09-15T10:35:41.294Z,4.97
2018-09-15T10:40:43.850Z,9.53
2018-09-15T10:45:46.410Z,6.13
2018-09-15T10:50:48.998Z,5.80
2018-09-15T10:55:51.557Z,5.87
2018-09-15T11:00:54.200Z,8.30
2018-09-15T11:05:56.766Z,5.77
2018-09-15T11:10:59.221Z,7.33
2018-09-15T11:16:01.791Z,6.00
2018-09-15T11:21:04.390Z,8.23
2018-09-15T11:26:06.978Z,6.37
2018-09-15T11:31:09.511Z,6.10
2018-09-15T11:36:12.055Z,8.03
2018-09-15T11:41:14.588Z,7.47
2018-09-15T11:46:17.146Z,6.70
2018-09-15T11:51:19.685Z,5.22
2018-09-15T11:56:22.304Z,8.40
2018-09-15T12:01:24.847Z,5.83
2018-09-15T12:06:27.419Z,5.10
2018-09-15T12:11:29.951Z,7.00
2018-09-15T12:16:32.504Z,6.10
2018-09-15T12:21:35.060Z,7.17
2018-09-15T12:26:37.589Z,9.17
2018-09-15T12:31:40.130Z,6.80
2018-09-15T12:36:42.669Z,5.05
2018-09-15T12:41:45.251Z,7.83
2018-09-15T12:46:47.859Z,6.63
2018-09-15T12:51:50.421Z,6.03
2018-09-15T12:56:52.942Z,6.90
2018-09-15T13:01:55.493Z,4.97
2018-09-15T13:06:58.045Z,5.12
2018-09-15T13:12:00.636Z,4.97
2018-09-15T13:17:03.176Z,6.53
2018-09-15T13:22:06.111Z,4.62
2018-09-15T13:27:08.715Z,4.42
2018-09-15T13:32:11.755Z,3.52
2018-09-15T13:37:14.299Z,6.40
2018-09-15T13:42:16.836Z,4.20
2018-09-15T13:47:19.384Z,3.52
2018-09-15T13:52:21.941Z,3.60
2018-09-15T13:57:24.555Z,3.95
2018-09-15T14:02:27.123Z,6.20
2018-09-15T14:07:29.685Z,2.90
2018-09-15T14:12:32.285Z,5.37
2018-09-15T14:17:34.837Z,3.70
2018-09-15T14:22:37.390Z,3.58
2018-09-15T14:27:39.939Z,4.85
2018-09-15T14:32:42.481Z,4.03
2018-09-15T14:37:45.092Z,2.70
2018-09-15T14:42:47.688Z,2.85
2018-09-15T14:47:50.299Z,3.52
2018-09-15T14:52:52.841Z,3.40
2018-09-15T14:57:55.414Z,4.28
2018-09-15T15:03:01.329Z,4.10
2018-09-15T15:08:03.993Z,4.72
2018-09-15T15:13:06.574Z,4.10
2018-09-15T15:18:09.181Z,7.28
2018-09-15T15:23:11.734Z,3.75
2018-09-15T15:28:14.319Z,4.28
2018-09-15T15:33:16.860Z,3.87
2018-09-15T15:38:19.401Z,3.80
2018-09-15T15:43:21.995Z,3.42
2018-09-15T15:48:24.552Z,3.00
2018-09-15T15:53:27.136Z,3.62
2018-09-15T15:58:29.848Z,2.75
2018-09-15T16:03:32.304Z,2.35
2018-09-15T16:08:34.875Z,2.20
2018-09-15T16:13:37.405Z,2.35
2018-09-15T16:18:39.939Z,3.17
2018-09-15T16:23:42.479Z,4.55
2018-09-15T16:28:45.035Z,2.02
2018-09-15T16:33:47.631Z,2.10
2018-09-15T16:38:50.204Z,2.10
2018-09-15T16:43:52.748Z,3.23
2018-09-15T16:48:55.320Z,2.23
2018-09-15T16:53:57.883Z,2.27
2018-09-15T16:59:00.455Z,3.13
2018-09-15T17:04:03.704Z,4.33
2018-09-15T17:09:09.296Z,3.37
2018-09-15T17:14:11.824Z,3.43
2018-09-15T17:19:14.391Z,6.17
2018-09-15T17:24:16.960Z,7.60
2018-09-15T17:29:19.668Z,15.33
2018-09-15T17:34:22.311Z,7.63
2018-09-15T17:39:24.856Z,3.63
2018-09-15T17:44:27.544Z,5.40
2018-09-15T17:49:30.093Z,4.70
2018-09-15T17:54:32.765Z,3.90
2018-09-15T17:59:35.309Z,7.80
2018-09-15T18:04:37.905Z,4.53
2018-09-15T18:09:40.550Z,4.00
2018-09-15T18:14:43.038Z,8.63
2018-09-15T18:19:45.936Z,5.93
2018-09-15T18:24:48.503Z,4.17
2018-09-15T18:29:51.089Z,4.17
2018-09-15T18:34:53.885Z,5.10
2018-09-15T18:39:56.457Z,5.70
2018-09-15T18:44:59.090Z,5.33
2018-09-15T18:50:01.756Z,3.70
2018-09-15T18:55:04.427Z,6.03
2018-09-15T19:00:07.107Z,4.57
2018-09-15T19:05:09.814Z,5.63
2018-09-15T19:10:12.474Z,5.97
2018-09-15T19:15:15.051Z,5.43
2018-09-15T19:20:17.657Z,7.57
2018-09-15T19:25:20.204Z,5.53
2018-09-15T19:30:22.800Z,7.10
2018-09-15T19:35:25.458Z,7.87
2018-09-15T19:40:28.160Z,7.90
2018-09-15T19:45:30.765Z,8.73
2018-09-15T19:50:33.415Z,7.73
2018-09-15T19:55:35.964Z,5.62
2018-09-15T20:00:38.636Z,10.87
2018-09-15T20:05:41.558Z,8.20
2018-09-15T20:10:44.184Z,7.40
2018-09-15T20:15:45.811Z,6.10
2018-09-15T20:20:47.292Z,5.33
2018-09-15T20:25:49.961Z,8.03
2018-09-15T20:30:52.762Z,4.80
2018-09-15T20:35:55.553Z,7.17
2018-09-15T20:40:58.105Z,7.83
2018-09-15T20:46:00.876Z,5.53
2018-09-15T20:51:03.560Z,6.27
2018-09-15T20:56:06.155Z,6.83
2018-09-15T21:01:08.728Z,5.50
2018-09-15T21:06:11.341Z,5.93
2018-09-15T21:11:13.949Z,4.87
2018-09-15T21:16:16.492Z,6.03
2018-09-15T21:21:19.076Z,6.53
2018-09-15T21:26:21.912Z,7.37
2018-09-15T21:31:24.518Z,6.17
2018-09-15T21:36:27.099Z,7.07
2018-09-15T21:41:29.647Z,4.80
2018-09-15T21:46:32.258Z,5.63
2018-09-15T21:51:34.873Z,5.10
2018-09-15T21:56:37.406Z,5.63
2018-09-15T22:01:39.999Z,4.30
2018-09-15T22:06:42.855Z,7.60
2018-09-15T22:11:45.552Z,6.70
2018-09-15T22:16:48.107Z,6.63
2018-09-15T22:21:50.680Z,5.17
2018-09-15T22:26:53.291Z,6.53
2018-09-15T22:31:55.847Z,7.33
2018-09-15T22:36:58.422Z,9.23
2018-09-15T22:42:01.031Z,6.30
2018-09-15T22:47:03.663Z,8.77
2018-09-15T22:52:06.297Z,4.63
2018-09-15T22:57:08.930Z,7.40
2018-09-15T23:02:11.455Z,5.67
2018-09-15T23:07:14.013Z,6.90
2018-09-15T23:12:16.571Z,5.37
2018-09-15T23:17:19.096Z,7.43
2018-09-15T23:22:21.635Z,6.90
2018-09-15T23:27:24.178Z,4.97
2018-09-15T23:32:27.080Z,6.00
2018-09-15T23:37:29.624Z,6.67
2018-09-15T23:42:32.151Z,7.10
2018-09-15T23:47:34.689Z,8.70
2018-09-15T23:52:37.134Z,8.07
2018-09-15T23:57:39.706Z,5.37
